createdAt,value
2023-03-13T00:00:18.431Z,3.35
2023-03-13T00:03:21.796Z,2.90
2023-03-13T00:06:25.881Z,4.07
2023-03-13T00:09:29.237Z,2.67
2023-03-13T00:12:34.169Z,3.72
2023-03-13T00:15:37.547Z,3.55
2023-03-13T00:18:41.194Z,2.88
2023-03-13T00:21:44.618Z,2.72
2023-03-13T00:24:47.887Z,2.83
2023-03-13T00:27:52.702Z,2.95
2023-03-13T00:31:02.037Z,2.92
2023-03-13T00:34:05.852Z,3.10
2023-03-13T00:37:10.329Z,2.53
2023-03-13T00:40:14.028Z,2.53
2023-03-13T00:43:18.922Z,2.47
2023-03-13T00:46:23.572Z,2.72
2023-03-13T00:49:27.023Z,3.05
2023-03-13T00:52:30.457Z,2.80
2023-03-13T00:55:33.816Z,2.78
2023-03-13T00:58:39.642Z,3.05
2023-03-13T01:01:43.281Z,2.80
2023-03-13T01:04:46.696Z,3.33
2023-03-13T01:07:51.209Z,2.45
2023-03-13T01:10:59.633Z,2.88
2023-03-13T01:14:05.567Z,2.67
2023-03-13T01:17:08.900Z,3.10
2023-03-13T01:20:12.701Z,2.97
2023-03-13T01:23:16.449Z,3.13
2023-03-13T01:26:20.051Z,3.58
2023-03-13T01:29:24.687Z,3.60
2023-03-13T01:32:28.046Z,3.70
2023-03-13T01:35:31.587Z,3.10
2023-03-13T01:38:35.851Z,2.88
2023-03-13T01:41:39.383Z,2.67
2023-03-13T01:44:53.046Z,3.30
2023-03-13T01:47:56.759Z,2.38
2023-03-13T01:51:19.713Z,2.97
2023-03-13T01:54:26.434Z,3.17
2023-03-13T01:57:31.847Z,2.88
2023-03-13T02:00:38.070Z,2.22
2023-03-13T02:03:45.673Z,3.35
2023-03-13T02:06:49.676Z,2.58
2023-03-13T02:09:55.036Z,3.78
2023-03-13T02:12:58.533Z,3.10
2023-03-13T02:16:03.493Z,2.83
2023-03-13T02:19:11.059Z,3.17
2023-03-13T02:22:21.162Z,3.42
2023-03-13T02:25:32.174Z,3.03
2023-03-13T02:28:38.982Z,2.67
2023-03-13T02:31:46.947Z,2.83
2023-03-13T02:34:52.976Z,2.40
2023-03-13T02:37:57.509Z,2.70
2023-03-13T02:41:04.222Z,2.22
2023-03-13T02:44:07.746Z,2.80
2023-03-13T02:47:11.086Z,2.75
2023-03-13T02:50:15.165Z,3.33
2023-03-13T02:53:19.944Z,3.70
2023-03-13T02:56:27.196Z,2.83
2023-03-13T02:59:32.209Z,3.35
2023-03-13T03:02:35.837Z,2.88
2023-03-13T03:05:39.526Z,2.40
2023-03-13T03:08:43.936Z,2.53
2023-03-13T03:11:50.212Z,2.67
2023-03-13T03:14:53.840Z,2.33
2023-03-13T03:17:58.900Z,2.60
2023-03-13T03:21:07.995Z,2.05
2023-03-13T03:24:15.369Z,2.83
2023-03-13T03:27:20.149Z,3.78
2023-03-13T03:30:29.223Z,2.72
2023-03-13T03:33:33.801Z,2.30
2023-03-13T03:36:41.495Z,2.80
2023-03-13T03:39:45.081Z,2.67
2023-03-13T03:42:50.215Z,2.92
2023-03-13T03:45:54.087Z,2.17
2023-03-13T03:48:59.015Z,3.90
2023-03-13T03:52:02.470Z,2.55
2023-03-13T03:55:12.101Z,2.60
2023-03-13T03:58:16.883Z,2.22
2023-03-13T04:01:38.834Z,2.10
2023-03-13T04:04:43.752Z,2.28
2023-03-13T04:07:52.291Z,1.88
2023-03-13T04:10:56.554Z,2.90
2023-03-13T04:14:03.191Z,2.50
2023-03-13T04:17:07.706Z,2.50
2023-03-13T04:20:13.587Z,1.65
2023-03-13T04:23:17.622Z,2.35
2023-03-13T04:26:21.179Z,2.92
2023-03-13T04:29:29.157Z,2.15
2023-03-13T04:32:57.821Z,2.03
2023-03-13T04:36:21.611Z,1.83
2023-03-13T04:39:47.135Z,1.83
2023-03-13T04:43:12.214Z,2.38
2023-03-13T04:46:41.571Z,1.63
2023-03-13T04:49:44.867Z,2.00
2023-03-13T04:52:57.059Z,1.92
2023-03-13T04:56:08.702Z,2.90
2023-03-13T04:59:41.165Z,1.92
2023-03-13T05:03:04.850Z,2.20
2023-03-13T05:06:31.151Z,1.90
2023-03-13T05:09:52.115Z,1.65
2023-03-13T05:13:14.128Z,1.98
2023-03-13T05:16:34.739Z,2.25
2023-03-13T05:20:04.073Z,2.22
2023-03-13T05:23:18.593Z,2.70
2023-03-13T05:26:31.609Z,1.77
2023-03-13T05:29:55.360Z,1.90
2023-03-13T05:33:14.490Z,1.77
2023-03-13T05:36:43.488Z,2.08
2023-03-13T05:40:06.259Z,1.98
2023-03-13T05:43:38.056Z,1.52
2023-03-13T05:47:10.746Z,2.53
2023-03-13T05:50:31.621Z,2.72
2023-03-13T05:53:42.394Z,1.75
2023-03-13T05:56:54.327Z,1.90
2023-03-13T06:00:09.860Z,2.63
2023-03-13T06:03:30.651Z,1.70
2023-03-13T06:06:34.827Z,1.75
2023-03-13T06:09:40.885Z,1.98
2023-03-13T06:12:45.260Z,1.42
2023-03-13T06:15:53.998Z,1.25
2023-03-13T06:19:20.083Z,1.40
2023-03-13T06:22:23.358Z,2.03
2023-03-13T06:25:28.011Z,1.42
2023-03-13T06:28:31.689Z,1.35
2023-03-13T06:31:35.267Z,1.20
2023-03-13T06:34:38.831Z,1.30
2023-03-13T06:37:42.286Z,1.00
2023-03-13T06:40:48.061Z,1.83
2023-03-13T06:43:51.442Z,0.93
2023-03-13T06:46:54.995Z,1.70
2023-03-13T06:49:58.308Z,1.38
2023-03-13T06:53:02.372Z,0.98
2023-03-13T06:56:07.371Z,1.52
2023-03-13T06:59:10.719Z,1.10
2023-03-13T07:02:14.872Z,0.95
2023-03-13T07:05:18.444Z,0.90
2023-03-13T07:08:23.025Z,0.90
2023-03-13T07:11:29.250Z,0.98
2023-03-13T07:14:32.570Z,1.15
2023-03-13T07:17:36.165Z,0.80
2023-03-13T07:20:40.069Z,0.95
2023-03-13T07:23:45.397Z,0.70
2023-03-13T07:27:07.511Z,1.25
2023-03-13T07:30:14.901Z,0.90
2023-03-13T07:33:21.403Z,0.80
2023-03-13T07:36:25.329Z,1.25
2023-03-13T07:39:28.759Z,1.13
2023-03-13T07:42:33.551Z,0.90
2023-03-13T07:45:36.883Z,1.02
2023-03-13T07:48:41.076Z,0.93
2023-03-13T07:51:47.584Z,0.70
2023-03-13T07:54:51.028Z,0.90
2023-03-13T07:58:05.502Z,0.57
2023-03-13T08:01:12.595Z,0.73
2023-03-13T08:04:16.248Z,0.70
2023-03-13T08:07:20.701Z,0.88
2023-03-13T08:10:24.702Z,0.90
2023-03-13T08:13:29.487Z,0.60
2023-03-13T08:16:34.702Z,0.77
2023-03-13T08:19:38.445Z,0.73
2023-03-13T08:22:41.901Z,0.63
2023-03-13T08:25:45.269Z,0.90
2023-03-13T08:28:53.563Z,0.93
2023-03-13T08:31:57.023Z,0.93
2023-03-13T08:35:00.470Z,1.10
2023-03-13T08:38:03.872Z,0.88
2023-03-13T08:41:11.828Z,1.00
2023-03-13T08:44:17.860Z,1.00
2023-03-13T08:47:21.293Z,1.05
2023-03-13T08:50:24.841Z,0.73
2023-03-13T08:53:28.340Z,0.85
2023-03-13T08:56:32.419Z,0.93
2023-03-13T08:59:37.090Z,0.90
2023-03-13T09:02:40.690Z,0.90
2023-03-13T09:05:55.754Z,1.02
2023-03-13T09:08:59.647Z,1.25
2023-03-13T09:12:02.930Z,1.20
2023-03-13T09:15:08.609Z,1.13
2023-03-13T09:18:12.184Z,1.48
2023-03-13T09:21:16.966Z,1.38
2023-03-13T09:24:20.370Z,1.60
2023-03-13T09:27:24.132Z,1.60
2023-03-13T09:30:28.927Z,1.38
2023-03-13T09:33:32.410Z,1.40
2023-03-13T09:36:35.805Z,1.23
2023-03-13T09:39:40.228Z,1.40
2023-03-13T09:42:48.193Z,1.25
2023-03-13T09:45:54.333Z,1.60
2023-03-13T09:48:59.097Z,1.75
2023-03-13T09:52:05.952Z,1.67
2023-03-13T09:55:15.445Z,1.75
2023-03-13T09:58:22.626Z,1.52
2023-03-13T10:01:29.897Z,1.60
2023-03-13T10:04:39.852Z,1.50
2023-03-13T10:07:45.263Z,1.38
2023-03-13T10:10:51.767Z,1.70
2023-03-13T10:13:58.793Z,1.70
2023-03-13T10:17:07.450Z,1.35
2023-03-13T10:20:17.934Z,1.70
2023-03-13T10:23:28.597Z,1.70
2023-03-13T10:26:34.100Z,2.20
2023-03-13T10:29:40.208Z,1.60
2023-03-13T10:32:47.560Z,1.38
2023-03-13T10:36:01.812Z,1.08
2023-03-13T10:39:10.092Z,1.55
2023-03-13T10:42:19.937Z,1.27
2023-03-13T10:45:25.572Z,1.13
2023-03-13T10:48:32.248Z,1.05
2023-03-13T10:51:39.108Z,1.15
2023-03-13T10:54:42.818Z,1.45
2023-03-13T10:57:54.788Z,1.00
2023-03-13T11:01:11.873Z,1.30
2023-03-13T11:04:30.433Z,1.20
2023-03-13T11:07:35.115Z,1.60
2023-03-13T11:10:38.707Z,1.17
2023-03-13T11:13:44.074Z,1.23
2023-03-13T11:16:52.204Z,1.63
2023-03-13T11:20:00.061Z,1.08
2023-03-13T11:23:19.016Z,1.27
2023-03-13T11:26:26.318Z,1.42
2023-03-13T11:29:33.993Z,1.63
2023-03-13T11:32:43.549Z,1.70
2023-03-13T11:35:51.914Z,1.40
2023-03-13T11:39:00.922Z,1.38
2023-03-13T11:42:08.400Z,1.23
2023-03-13T11:45:23.834Z,1.38
2023-03-13T11:48:47.807Z,1.55
2023-03-13T11:51:58.324Z,1.23
2023-03-13T11:55:09.113Z,1.65
2023-03-13T11:58:22.340Z,1.15
2023-03-13T12:01:28.041Z,1.38
2023-03-13T12:04:34.780Z,1.40
2023-03-13T12:07:41.779Z,1.42
2023-03-13T12:10:48.938Z,1.48
2023-03-13T12:14:00.320Z,1.65
2023-03-13T12:17:06.505Z,1.17
2023-03-13T12:20:13.603Z,1.23
2023-03-13T12:23:20.794Z,1.08
2023-03-13T12:26:27.851Z,1.10
2023-03-13T12:29:39.619Z,1.35
2023-03-13T12:32:45.302Z,1.02
2023-03-13T12:35:53.712Z,1.20
2023-03-13T12:38:59.418Z,1.02
2023-03-13T12:42:21.242Z,1.15
2023-03-13T12:45:29.316Z,1.10
2023-03-13T12:48:46.901Z,1.00
2023-03-13T12:51:58.406Z,0.90
2023-03-13T12:55:10.531Z,1.13
2023-03-13T12:58:23.689Z,0.80
2023-03-13T13:01:33.635Z,1.08
2023-03-13T13:04:52.523Z,0.70
2023-03-13T13:07:57.007Z,1.02
2023-03-13T13:11:15.439Z,0.77
2023-03-13T13:14:51.924Z,0.80
2023-03-13T13:18:00.839Z,1.10
2023-03-13T13:21:26.394Z,0.77
2023-03-13T13:24:42.719Z,0.90
2023-03-13T13:27:49.266Z,0.90
2023-03-13T13:30:55.853Z,0.90
2023-03-13T13:34:02.175Z,0.95
2023-03-13T13:37:25.116Z,1.08
2023-03-13T13:40:30.327Z,0.65
2023-03-13T13:43:37.558Z,0.93
2023-03-13T13:46:45.956Z,0.95
2023-03-13T13:50:01.263Z,0.82
2023-03-13T13:53:19.733Z,0.70
2023-03-13T13:56:42.107Z,0.85
2023-03-13T13:59:47.135Z,0.90
2023-03-13T14:02:52.067Z,0.50
2023-03-13T14:05:59.475Z,0.80
2023-03-13T14:09:11.179Z,1.00
2023-03-13T14:12:29.719Z,0.73
2023-03-13T14:15:35.434Z,0.85
2023-03-13T14:18:43.832Z,0.60
2023-03-13T14:21:49.376Z,1.00
2023-03-13T14:25:03.496Z,1.02
2023-03-13T14:28:07.624Z,0.98
2023-03-13T14:31:12.267Z,1.00
2023-03-13T14:34:15.783Z,0.88
2023-03-13T14:37:36.138Z,0.98
2023-03-13T14:40:42.919Z,1.25
2023-03-13T14:43:47.508Z,0.80
2023-03-13T14:46:51.092Z,0.70
2023-03-13T14:49:58.666Z,0.80
2023-03-13T14:53:05.969Z,1.00
2023-03-13T14:56:15.871Z,1.15
2023-03-13T14:59:20.721Z,0.98
2023-03-13T15:02:26.401Z,1.02
2023-03-13T15:05:33.789Z,1.30
2023-03-13T15:08:37.648Z,0.90
2023-03-13T15:11:43.743Z,0.88
2023-03-13T15:14:47.993Z,0.73
2023-03-13T15:17:51.435Z,0.70
2023-03-13T15:20:55.649Z,0.88
2023-03-13T15:24:01.784Z,1.30
2023-03-13T15:27:12.479Z,0.70
2023-03-13T15:30:17.473Z,0.70
2023-03-13T15:33:25.153Z,0.80
2023-03-13T15:36:31.004Z,0.88
2023-03-13T15:39:38.868Z,0.60
2023-03-13T15:42:43.838Z,0.88
2023-03-13T15:45:51.374Z,0.98
2023-03-13T15:48:55.541Z,0.85
2023-03-13T15:51:59.030Z,0.80
2023-03-13T15:55:02.716Z,0.68
2023-03-13T15:58:10.962Z,0.77
2023-03-13T16:01:15.198Z,0.75
2023-03-13T16:04:18.569Z,0.73
2023-03-13T16:07:22.840Z,0.90
2023-03-13T16:10:27.889Z,0.98
2023-03-13T16:13:33.107Z,0.98
2023-03-13T16:16:37.830Z,1.10
2023-03-13T16:19:41.387Z,0.68
2023-03-13T16:22:45.156Z,0.88
2023-03-13T16:25:49.904Z,0.77
2023-03-13T16:28:55.368Z,0.93
2023-03-13T16:31:58.947Z,0.60
2023-03-13T16:35:02.340Z,0.90
2023-03-13T16:38:08.475Z,0.70
2023-03-13T16:41:15.303Z,0.85
2023-03-13T16:44:20.014Z,0.70
2023-03-13T16:47:24.880Z,0.95
2023-03-13T16:50:33.776Z,0.90
2023-03-13T16:53:37.598Z,0.70
2023-03-13T16:56:42.981Z,0.73
2023-03-13T16:59:47.806Z,0.68
2023-03-13T17:02:51.453Z,0.80
2023-03-13T17:05:54.873Z,0.73
2023-03-13T17:08:58.486Z,0.90
2023-03-13T17:12:01.988Z,1.00
2023-03-13T17:15:07.456Z,0.73
2023-03-13T17:18:11.446Z,0.85
2023-03-13T17:21:16.088Z,0.65
2023-03-13T17:24:26.197Z,0.70
2023-03-13T17:27:29.580Z,1.10
2023-03-13T17:30:35.248Z,0.80
2023-03-13T17:33:38.706Z,0.75
2023-03-13T17:36:42.174Z,1.00
2023-03-13T17:39:45.986Z,1.92
2023-03-13T17:42:50.315Z,1.95
2023-03-13T17:45:55.817Z,2.17
2023-03-13T17:49:00.045Z,1.27
2023-03-13T17:52:03.415Z,1.42
2023-03-13T17:55:07.478Z,1.35
2023-03-13T17:58:24.006Z,5.75
2023-03-13T18:01:30.462Z,1.98
2023-03-13T18:04:33.814Z,1.85
2023-03-13T18:07:43.321Z,1.10
2023-03-13T18:10:48.002Z,1.52
2023-03-13T18:13:52.296Z,4.32
2023-03-13T18:16:57.427Z,2.30
2023-03-13T18:20:01.049Z,1.27
2023-03-13T18:23:05.405Z,1.30
2023-03-13T18:26:21.227Z,1.52
2023-03-13T18:29:27.133Z,1.48
2023-03-13T18:32:32.244Z,1.02
2023-03-13T18:35:35.926Z,1.00
2023-03-13T18:38:39.452Z,1.73
2023-03-13T18:41:42.830Z,1.75
2023-03-13T18:44:46.169Z,0.98
2023-03-13T18:47:51.454Z,1.67
2023-03-13T18:50:54.783Z,1.17
2023-03-13T18:53:58.474Z,1.23
2023-03-13T18:57:02.249Z,2.22
2023-03-13T19:00:14.757Z,0.88
2023-03-13T19:03:20.431Z,0.57
2023-03-13T19:06:24.918Z,1.02
2023-03-13T19:09:46.328Z,1.15
2023-03-13T19:12:50.393Z,1.20
2023-03-13T19:15:53.731Z,1.30
2023-03-13T19:18:59.070Z,1.05
2023-03-13T19:22:03.265Z,0.90
2023-03-13T19:25:07.052Z,0.82
2023-03-13T19:28:10.975Z,0.80
2023-03-13T19:31:14.316Z,0.70
2023-03-13T19:34:19.140Z,0.60
2023-03-13T19:37:22.539Z,0.85
2023-03-13T19:40:28.526Z,0.98
2023-03-13T19:43:32.086Z,0.80
2023-03-13T19:46:37.486Z,0.98
2023-03-13T19:49:42.615Z,1.05
2023-03-13T19:52:46.582Z,0.93
2023-03-13T19:55:51.007Z,0.98
2023-03-13T19:58:58.388Z,0.98
2023-03-13T20:02:04.810Z,0.98
2023-03-13T20:05:30.874Z,0.75
2023-03-13T20:08:38.465Z,0.57
2023-03-13T20:11:42.410Z,1.02
2023-03-13T20:14:46.027Z,1.30
2023-03-13T20:17:49.579Z,1.20
2023-03-13T20:20:54.292Z,0.70
2023-03-13T20:23:58.471Z,0.95
2023-03-13T20:27:03.105Z,0.77
2023-03-13T20:30:07.020Z,0.73
2023-03-13T20:33:10.740Z,1.38
2023-03-13T20:36:17.025Z,1.05
2023-03-13T20:39:20.628Z,0.93
2023-03-13T20:42:23.980Z,1.00
2023-03-13T20:45:27.430Z,0.80
2023-03-13T20:48:30.795Z,0.80
2023-03-13T20:51:36.033Z,1.33
2023-03-13T20:54:39.629Z,1.02
2023-03-13T20:57:45.564Z,0.70
2023-03-13T21:00:50.516Z,0.90
2023-03-13T21:03:53.900Z,0.85
2023-03-13T21:07:04.273Z,1.00
2023-03-13T21:10:08.138Z,0.90
2023-03-13T21:13:11.770Z,0.93
2023-03-13T21:16:15.767Z,0.88
2023-03-13T21:19:30.712Z,1.35
2023-03-13T21:22:37.208Z,0.90
2023-03-13T21:25:40.517Z,1.20
2023-03-13T21:28:43.845Z,1.23
2023-03-13T21:31:47.513Z,0.90
2023-03-13T21:34:50.868Z,1.05
2023-03-13T21:37:55.568Z,0.90
2023-03-13T21:40:59.269Z,0.98
2023-03-13T21:44:02.634Z,0.73
2023-03-13T21:47:06.422Z,0.88
2023-03-13T21:50:10.961Z,0.90
2023-03-13T21:53:16.030Z,0.80
2023-03-13T21:56:20.945Z,0.98
2023-03-13T21:59:25.942Z,1.00
2023-03-13T22:02:29.324Z,0.73
2023-03-13T22:05:32.909Z,1.10
2023-03-13T22:08:37.610Z,0.95
2023-03-13T22:11:40.945Z,1.00
2023-03-13T22:14:44.262Z,0.95
2023-03-13T22:17:47.594Z,0.80
2023-03-13T22:20:50.941Z,1.02
2023-03-13T22:23:55.646Z,0.93
2023-03-13T22:26:59.557Z,1.10
2023-03-13T22:30:02.872Z,1.20
2023-03-13T22:33:06.758Z,1.20
2023-03-13T22:36:12.644Z,0.95
2023-03-13T22:39:17.785Z,1.15
2023-03-13T22:42:21.117Z,1.27
2023-03-13T22:45:24.558Z,0.93
2023-03-13T22:48:28.449Z,1.30
2023-03-13T22:51:31.892Z,1.00
2023-03-13T22:54:36.626Z,1.27
2023-03-13T22:57:39.913Z,1.15
2023-03-13T23:00:43.313Z,1.00
2023-03-13T23:03:46.915Z,1.02
2023-03-13T23:06:50.326Z,1.20
2023-03-13T23:09:54.972Z,1.20
2023-03-13T23:12:58.359Z,1.20
2023-03-13T23:16:01.685Z,1.02
2023-03-13T23:19:05.268Z,1.25
2023-03-13T23:22:08.692Z,1.17
2023-03-13T23:25:13.989Z,1.05
2023-03-13T23:28:17.354Z,1.08
2023-03-13T23:31:22.353Z,1.20
2023-03-13T23:34:36.743Z,1.30
2023-03-13T23:37:40.393Z,1.02
2023-03-13T23:40:45.672Z,1.00
2023-03-13T23:43:49.836Z,0.90
2023-03-13T23:46:53.165Z,1.08
2023-03-13T23:49:56.600Z,1.60
2023-03-13T23:52:59.982Z,1.35
2023-03-13T23:56:05.059Z,1.10
2023-03-13T23:59:09.152Z,1.30
